sensor_id;sensor_type;location;lat;lon;timestamp;P1;durP1;ratioP1;P2;durP2;ratioP2
20344;SDS011;10330;48.816;9.278;2023-09-07T00:48:49;5.35;;;2.50;;
20344;SDS011;10330;48.816;9.278;2023-09-07T00:51:19;3.30;;;3.05;;
20344;SDS011;10330;48.816;9.278;2023-09-07T00:53:59;4.07;;;2.97;;
20344;SDS011;10330;48.816;9.278;2023-09-07T00:57:22;3.80;;;2.95;;
20344;SDS011;10330;48.816;9.278;2023-09-07T00:59:54;3.03;;;2.75;;
20344;SDS011;10330;48.816;9.278;2023-09-07T01:02:26;3.35;;;3.05;;
20344;SDS011;10330;48.816;9.278;2023-09-07T01:04:56;2.70;;;2.50;;
20344;SDS011;10330;48.816;9.278;2023-09-07T01:07:26;5.13;;;2.80;;
20344;SDS011;10330;48.816;9.278;2023-09-07T01:10:12;3.83;;;3.03;;
20344;SDS011;10330;48.816;9.278;2023-09-07T01:12:41;3.55;;;2.90;;
20344;SDS011;10330;48.816;9.278;2023-09-07T01:15:08;3.03;;;2.83;;
20344;SDS011;10330;48.816;9.278;2023-09-07T01:24:35;4.85;;;2.85;;
20344;SDS011;10330;48.816;9.278;2023-09-07T01:30:52;4.07;;;3.00;;
20344;SDS011;10330;48.816;9.278;2023-09-07T01:33:38;3.28;;;2.75;;
20344;SDS011;10330;48.816;9.278;2023-09-07T01:36:18;3.10;;;2.90;;
20344;SDS011;10330;48.816;9.278;2023-09-07T01:38:53;5.55;;;3.70;;
20344;SDS011;10330;48.816;9.278;2023-09-07T01:41:25;3.53;;;2.85;;
20344;SDS011;10330;48.816;9.278;2023-09-07T01:43:53;5.82;;;3.03;;
20344;SDS011;10330;48.816;9.278;2023-09-07T01:46:20;3.55;;;3.08;;
20344;SDS011;10330;48.816;9.278;2023-09-07T04:12:38;3.67;;;3.20;;
20344;SDS011;10330;48.816;9.278;2023-09-07T04:15:47;3.33;;;3.08;;
20344;SDS011;10330;48.816;9.278;2023-09-07T04:34:26;5.97;;;4.47;;
20344;SDS011;10330;48.816;9.278;2023-09-07T04:36:54;4.25;;;3.70;;
20344;SDS011;10330;48.816;9.278;2023-09-07T04:39:29;4.30;;;3.50;;
20344;SDS011;10330;48.816;9.278;2023-09-07T04:42:01;5.57;;;4.13;;
20344;SDS011;10330;48.816;9.278;2023-09-07T04:44:30;4.85;;;3.80;;
20344;SDS011;10330;48.816;9.278;2023-09-07T04:46:57;4.90;;;4.10;;
20344;SDS011;10330;48.816;9.278;2023-09-07T04:49:23;3.80;;;3.47;;
20344;SDS011;10330;48.816;9.278;2023-09-07T04:51:52;4.38;;;3.20;;
20344;SDS011;10330;48.816;9.278;2023-09-07T04:54:22;5.70;;;3.53;;
20344;SDS011;10330;48.816;9.278;2023-09-07T04:56:51;5.05;;;4.35;;
20344;SDS011;10330;48.816;9.278;2023-09-07T04:59:50;4.18;;;3.20;;
20344;SDS011;10330;48.816;9.278;2023-09-07T05:06:25;4.72;;;3.92;;
20344;SDS011;10330;48.816;9.278;2023-09-07T05:08:54;7.53;;;4.13;;
20344;SDS011;10330;48.816;9.278;2023-09-07T05:11:37;6.97;;;3.45;;
20344;SDS011;10330;48.816;9.278;2023-09-07T05:14:04;4.47;;;3.35;;
20344;SDS011;10330;48.816;9.278;2023-09-07T05:16:30;7.68;;;4.10;;
20344;SDS011;10330;48.816;9.278;2023-09-07T05:18:57;8.15;;;4.05;;
20344;SDS011;10330;48.816;9.278;2023-09-07T05:21:37;5.95;;;3.50;;
20344;SDS011;10330;48.816;9.278;2023-09-07T05:29:04;4.50;;;3.53;;
20344;SDS011;10330;48.816;9.278;2023-09-07T05:32:39;5.97;;;3.85;;
20344;SDS011;10330;48.816;9.278;2023-09-07T05:39:41;3.97;;;3.40;;
20344;SDS011;10330;48.816;9.278;2023-09-07T05:42:47;11.10;;;4.13;;
20344;SDS011;10330;48.816;9.278;2023-09-07T05:49:07;11.77;;;4.57;;
20344;SDS011;10330;48.816;9.278;2023-09-07T06:03:07;7.63;;;4.05;;
20344;SDS011;10330;48.816;9.278;2023-09-07T06:05:40;6.60;;;3.45;;
20344;SDS011;10330;48.816;9.278;2023-09-07T06:08:12;7.65;;;4.18;;
20344;SDS011;10330;48.816;9.278;2023-09-07T06:10:50;6.45;;;4.55;;
20344;SDS011;10330;48.816;9.278;2023-09-07T06:13:28;11.38;;;4.90;;
20344;SDS011;10330;48.816;9.278;2023-09-07T06:16:20;5.32;;;3.65;;
20344;SDS011;10330;48.816;9.278;2023-09-07T06:19:04;9.32;;;3.85;;
20344;SDS011;10330;48.816;9.278;2023-09-07T06:21:40;6.55;;;4.05;;
20344;SDS011;10330;48.816;9.278;2023-09-07T06:24:21;4.88;;;4.07;;
20344;SDS011;10330;48.816;9.278;2023-09-07T06:27:05;7.80;;;4.65;;
20344;SDS011;10330;48.816;9.278;2023-09-07T06:29:41;14.30;;;5.40;;
20344;SDS011;10330;48.816;9.278;2023-09-07T06:32:23;8.75;;;5.28;;
20344;SDS011;10330;48.816;9.278;2023-09-07T06:35:40;9.93;;;6.03;;
20344;SDS011;10330;48.816;9.278;2023-09-07T06:41:27;11.05;;;5.53;;
20344;SDS011;10330;48.816;9.278;2023-09-07T06:43:53;6.25;;;4.63;;
20344;SDS011;10330;48.816;9.278;2023-09-07T06:54:27;10.25;;;4.90;;
20344;SDS011;10330;48.816;9.278;2023-09-07T06:56:51;5.85;;;4.32;;
20344;SDS011;10330;48.816;9.278;2023-09-07T06:59:33;5.05;;;4.38;;
20344;SDS011;10330;48.816;9.278;2023-09-07T07:02:19;7.45;;;4.40;;
20344;SDS011;10330;48.816;9.278;2023-09-07T07:04:46;6.05;;;4.55;;
20344;SDS011;10330;48.816;9.278;2023-09-07T07:07:44;4.88;;;4.30;;
20344;SDS011;10330;48.816;9.278;2023-09-07T07:10:11;5.63;;;4.63;;
20344;SDS011;10330;48.816;9.278;2023-09-07T07:12:37;6.03;;;4.57;;
20344;SDS011;10330;48.816;9.278;2023-09-07T07:15:12;7.47;;;4.35;;
20344;SDS011;10330;48.816;9.278;2023-09-07T07:17:39;7.47;;;4.65;;
20344;SDS011;10330;48.816;9.278;2023-09-07T07:20:05;6.35;;;4.28;;
20344;SDS011;10330;48.816;9.278;2023-09-07T07:22:32;7.53;;;4.43;;
20344;SDS011;10330;48.816;9.278;2023-09-07T07:25:13;5.03;;;4.53;;
20344;SDS011;10330;48.816;9.278;2023-09-07T07:27:39;5.38;;;4.43;;
20344;SDS011;10330;48.816;9.278;2023-09-07T07:30:11;8.18;;;4.63;;
20344;SDS011;10330;48.816;9.278;2023-09-07T07:32:40;6.78;;;4.13;;
20344;SDS011;10330;48.816;9.278;2023-09-07T07:35:07;8.15;;;4.22;;
20344;SDS011;10330;48.816;9.278;2023-09-07T07:37:52;6.22;;;4.78;;
20344;SDS011;10330;48.816;9.278;2023-09-07T07:41:13;10.48;;;4.70;;
20344;SDS011;10330;48.816;9.278;2023-09-07T07:44:26;15.27;;;4.47;;
20344;SDS011;10330;48.816;9.278;2023-09-07T07:46:53;4.85;;;4.35;;
20344;SDS011;10330;48.816;9.278;2023-09-07T07:49:19;7.80;;;4.45;;
20344;SDS011;10330;48.816;9.278;2023-09-07T07:51:46;4.72;;;4.20;;
20344;SDS011;10330;48.816;9.278;2023-09-07T07:54:12;7.03;;;4.32;;
20344;SDS011;10330;48.816;9.278;2023-09-07T07:56:39;4.28;;;3.95;;
20344;SDS011;10330;48.816;9.278;2023-09-07T07:59:06;7.10;;;4.05;;
20344;SDS011;10330;48.816;9.278;2023-09-07T08:01:32;5.47;;;4.15;;
20344;SDS011;10330;48.816;9.278;2023-09-07T08:04:00;5.68;;;3.88;;
20344;SDS011;10330;48.816;9.278;2023-09-07T08:06:28;5.75;;;3.55;;
20344;SDS011;10330;48.816;9.278;2023-09-07T08:09:12;5.38;;;3.95;;
20344;SDS011;10330;48.816;9.278;2023-09-07T08:11:41;5.18;;;3.88;;
20344;SDS011;10330;48.816;9.278;2023-09-07T08:14:10;4.47;;;4.00;;
20344;SDS011;10330;48.816;9.278;2023-09-07T08:16:39;4.65;;;3.97;;
20344;SDS011;10330;48.816;9.278;2023-09-07T08:19:07;4.43;;;4.03;;
20344;SDS011;10330;48.816;9.278;2023-09-07T08:21:33;8.52;;;4.00;;
20344;SDS011;10330;48.816;9.278;2023-09-07T08:24:01;6.20;;;4.00;;
20344;SDS011;10330;48.816;9.278;2023-09-07T08:26:31;6.85;;;3.92;;
20344;SDS011;10330;48.816;9.278;2023-09-07T08:28:57;9.40;;;4.13;;
20344;SDS011;10330;48.816;9.278;2023-09-07T08:31:23;6.05;;;3.90;;
20344;SDS011;10330;48.816;9.278;2023-09-07T08:34:12;6.60;;;3.80;;
20344;SDS011;10330;48.816;9.278;2023-09-07T08:36:42;9.25;;;3.95;;
20344;SDS011;10330;48.816;9.278;2023-09-07T08:39:08;11.52;;;4.40;;
20344;SDS011;10330;48.816;9.278;2023-09-07T08:41:39;7.35;;;4.10;;
20344;SDS011;10330;48.816;9.278;2023-09-07T08:44:18;4.57;;;4.07;;
20344;SDS011;10330;48.816;9.278;2023-09-07T08:46:49;5.18;;;4.63;;
20344;SDS011;10330;48.816;9.278;2023-09-07T08:49:19;8.52;;;3.85;;
20344;SDS011;10330;48.816;9.278;2023-09-07T08:51:48;6.93;;;4.90;;
20344;SDS011;10330;48.816;9.278;2023-09-07T08:54:15;7.75;;;4.60;;
20344;SDS011;10330;48.816;9.278;2023-09-07T08:56:42;7.00;;;4.90;;
20344;SDS011;10330;48.816;9.278;2023-09-07T08:59:12;5.40;;;4.00;;
20344;SDS011;10330;48.816;9.278;2023-09-07T09:01:39;6.00;;;4.40;;
20344;SDS011;10330;48.816;9.278;2023-09-07T09:04:05;6.15;;;4.70;;
20344;SDS011;10330;48.816;9.278;2023-09-07T09:06:32;5.53;;;3.95;;
20344;SDS011;10330;48.816;9.278;2023-09-07T09:08:59;4.45;;;4.05;;
20344;SDS011;10330;48.816;9.278;2023-09-07T09:11:25;7.90;;;4.55;;
20344;SDS011;10330;48.816;9.278;2023-09-07T09:13:53;5.25;;;4.60;;
20344;SDS011;10330;48.816;9.278;2023-09-07T09:16:20;6.88;;;4.35;;
20344;SDS011;10330;48.816;9.278;2023-09-07T09:18:58;6.15;;;4.70;;
20344;SDS011;10330;48.816;9.278;2023-09-07T09:21:25;6.72;;;4.07;;
20344;SDS011;10330;48.816;9.278;2023-09-07T09:23:52;7.85;;;4.75;;
20344;SDS011;10330;48.816;9.278;2023-09-07T09:26:20;4.05;;;3.65;;
20344;SDS011;10330;48.816;9.278;2023-09-07T09:28:49;7.20;;;4.60;;
20344;SDS011;10330;48.816;9.278;2023-09-07T09:31:18;6.18;;;4.35;;
20344;SDS011;10330;48.816;9.278;2023-09-07T09:33:48;8.68;;;3.92;;
20344;SDS011;10330;48.816;9.278;2023-09-07T09:36:15;5.95;;;4.45;;
20344;SDS011;10330;48.816;9.278;2023-09-07T09:38:46;7.28;;;4.55;;
20344;SDS011;10330;48.816;9.278;2023-09-07T09:41:18;10.07;;;4.72;;
20344;SDS011;10330;48.816;9.278;2023-09-07T09:43:46;5.43;;;4.85;;
20344;SDS011;10330;48.816;9.278;2023-09-07T09:46:17;5.80;;;4.32;;
20344;SDS011;10330;48.816;9.278;2023-09-07T09:48:49;6.38;;;4.28;;
20344;SDS011;10330;48.816;9.278;2023-09-07T09:51:17;5.35;;;4.18;;
20344;SDS011;10330;48.816;9.278;2023-09-07T09:53:44;6.50;;;4.80;;
20344;SDS011;10330;48.816;9.278;2023-09-07T09:56:10;9.38;;;5.80;;
20344;SDS011;10330;48.816;9.278;2023-09-07T09:58:37;8.13;;;5.47;;
20344;SDS011;10330;48.816;9.278;2023-09-07T10:01:04;6.07;;;4.40;;
20344;SDS011;10330;48.816;9.278;2023-09-07T10:03:34;11.35;;;4.68;;
20344;SDS011;10330;48.816;9.278;2023-09-07T10:06:19;5.07;;;3.78;;
20344;SDS011;10330;48.816;9.278;2023-09-07T10:08:59;7.38;;;4.25;;
20344;SDS011;10330;48.816;9.278;2023-09-07T10:11:26;4.40;;;4.00;;
20344;SDS011;10330;48.816;9.278;2023-09-07T10:13:58;4.65;;;4.20;;
20344;SDS011;10330;48.816;9.278;2023-09-07T10:16:25;5.85;;;4.15;;
20344;SDS011;10330;48.816;9.278;2023-09-07T10:18:56;4.03;;;3.63;;
20344;SDS011;10330;48.816;9.278;2023-09-07T10:21:24;8.18;;;4.10;;
20344;SDS011;10330;48.816;9.278;2023-09-07T10:23:51;4.43;;;3.95;;
20344;SDS011;10330;48.816;9.278;2023-09-07T10:26:19;4.45;;;4.03;;
20344;SDS011;10330;48.816;9.278;2023-09-07T10:28:47;8.02;;;5.80;;
20344;SDS011;10330;48.816;9.278;2023-09-07T10:31:25;5.22;;;4.72;;
20344;SDS011;10330;48.816;9.278;2023-09-07T10:33:51;7.88;;;3.95;;
20344;SDS011;10330;48.816;9.278;2023-09-07T10:36:25;6.95;;;4.40;;
20344;SDS011;10330;48.816;9.278;2023-09-07T10:38:53;5.38;;;3.90;;
20344;SDS011;10330;48.816;9.278;2023-09-07T10:41:21;7.38;;;3.92;;
20344;SDS011;10330;48.816;9.278;2023-09-07T10:43:51;6.53;;;3.63;;
20344;SDS011;10330;48.816;9.278;2023-09-07T10:46:21;6.68;;;3.70;;
20344;SDS011;10330;48.816;9.278;2023-09-07T10:48:52;7.57;;;4.03;;
20344;SDS011;10330;48.816;9.278;2023-09-07T10:51:19;6.18;;;4.15;;
20344;SDS011;10330;48.816;9.278;2023-09-07T10:53:46;11.57;;;5.03;;
20344;SDS011;10330;48.816;9.278;2023-09-07T10:56:12;5.60;;;4.15;;
20344;SDS011;10330;48.816;9.278;2023-09-07T10:58:39;13.10;;;7.43;;
20344;SDS011;10330;48.816;9.278;2023-09-07T11:01:08;6.30;;;5.00;;
20344;SDS011;10330;48.816;9.278;2023-09-07T11:03:35;5.97;;;4.20;;
20344;SDS011;10330;48.816;9.278;2023-09-07T11:08:31;3.95;;;3.65;;
20344;SDS011;10330;48.816;9.278;2023-09-07T11:11:01;3.72;;;3.38;;
20344;SDS011;10330;48.816;9.278;2023-09-07T11:13:31;8.93;;;4.13;;
20344;SDS011;10330;48.816;9.278;2023-09-07T11:15:58;4.22;;;3.83;;
20344;SDS011;10330;48.816;9.278;2023-09-07T11:18:25;4.72;;;4.22;;
20344;SDS011;10330;48.816;9.278;2023-09-07T11:20:52;4.45;;;4.05;;
20344;SDS011;10330;48.816;9.278;2023-09-07T11:23:19;3.83;;;3.22;;
20344;SDS011;10330;48.816;9.278;2023-09-07T11:25:47;5.47;;;3.65;;
20344;SDS011;10330;48.816;9.278;2023-09-07T11:28:15;4.78;;;3.83;;
20344;SDS011;10330;48.816;9.278;2023-09-07T11:30:53;4.63;;;3.70;;
20344;SDS011;10330;48.816;9.278;2023-09-07T11:33:21;6.20;;;3.60;;
20344;SDS011;10330;48.816;9.278;2023-09-07T11:35:48;5.38;;;3.42;;
20344;SDS011;10330;48.816;9.278;2023-09-07T11:38:16;3.42;;;3.10;;
20344;SDS011;10330;48.816;9.278;2023-09-07T11:40:43;3.33;;;3.10;;
20344;SDS011;10330;48.816;9.278;2023-09-07T11:43:10;3.88;;;3.47;;
20344;SDS011;10330;48.816;9.278;2023-09-07T11:45:41;3.65;;;3.05;;
20344;SDS011;10330;48.816;9.278;2023-09-07T11:48:09;5.28;;;3.00;;
20344;SDS011;10330;48.816;9.278;2023-09-07T11:50:36;5.38;;;3.33;;
20344;SDS011;10330;48.816;9.278;2023-09-07T11:53:03;3.42;;;2.97;;
20344;SDS011;10330;48.816;9.278;2023-09-07T11:55:30;4.43;;;3.22;;
20344;SDS011;10330;48.816;9.278;2023-09-07T11:57:57;6.93;;;2.95;;
20344;SDS011;10330;48.816;9.278;2023-09-07T12:00:23;4.78;;;3.75;;
20344;SDS011;10330;48.816;9.278;2023-09-07T12:02:50;3.47;;;3.08;;
20344;SDS011;10330;48.816;9.278;2023-09-07T12:05:16;3.50;;;3.20;;
20344;SDS011;10330;48.816;9.278;2023-09-07T12:07:44;3.80;;;3.05;;
20344;SDS011;10330;48.816;9.278;2023-09-07T12:10:11;6.40;;;3.22;;
20344;SDS011;10330;48.816;9.278;2023-09-07T12:12:39;4.40;;;3.65;;
20344;SDS011;10330;48.816;9.278;2023-09-07T12:15:06;2.88;;;2.67;;
20344;SDS011;10330;48.816;9.278;2023-09-07T12:17:33;3.17;;;2.83;;
20344;SDS011;10330;48.816;9.278;2023-09-07T12:19:59;4.32;;;2.70;;
20344;SDS011;10330;48.816;9.278;2023-09-07T12:22:26;4.28;;;3.05;;
20344;SDS011;10330;48.816;9.278;2023-09-07T12:24:53;2.67;;;2.47;;
20344;SDS011;10330;48.816;9.278;2023-09-07T12:27:19;5.32;;;3.33;;
20344;SDS011;10330;48.816;9.278;2023-09-07T12:29:45;4.50;;;2.90;;
20344;SDS011;10330;48.816;9.278;2023-09-07T12:32:12;4.28;;;2.65;;
20344;SDS011;10330;48.816;9.278;2023-09-07T12:34:38;3.20;;;3.00;;
20344;SDS011;10330;48.816;9.278;2023-09-07T12:37:04;4.38;;;2.70;;
20344;SDS011;10330;48.816;9.278;2023-09-07T12:39:31;5.78;;;2.50;;
20344;SDS011;10330;48.816;9.278;2023-09-07T12:41:57;4.82;;;2.58;;
20344;SDS011;10330;48.816;9.278;2023-09-07T12:44:27;5.40;;;2.75;;
20344;SDS011;10330;48.816;9.278;2023-09-07T12:46:53;4.47;;;2.55;;
20344;SDS011;10330;48.816;9.278;2023-09-07T12:49:19;4.45;;;2.92;;
20344;SDS011;10330;48.816;9.278;2023-09-07T12:51:45;2.67;;;2.45;;
20344;SDS011;10330;48.816;9.278;2023-09-07T12:54:12;2.63;;;2.42;;
20344;SDS011;10330;48.816;9.278;2023-09-07T12:56:38;2.53;;;2.42;;
20344;SDS011;10330;48.816;9.278;2023-09-07T12:59:04;5.35;;;2.83;;
20344;SDS011;10330;48.816;9.278;2023-09-07T13:01:31;5.90;;;2.60;;
20344;SDS011;10330;48.816;9.278;2023-09-07T13:03:57;2.47;;;2.15;;
20344;SDS011;10330;48.816;9.278;2023-09-07T13:06:24;2.97;;;2.45;;
20344;SDS011;10330;48.816;9.278;2023-09-07T13:08:50;4.88;;;2.75;;
20344;SDS011;10330;48.816;9.278;2023-09-07T13:11:16;3.15;;;2.70;;
20344;SDS011;10330;48.816;9.278;2023-09-07T13:13:42;2.50;;;2.33;;
20344;SDS011;10330;48.816;9.278;2023-09-07T13:16:08;3.38;;;2.60;;
20344;SDS011;10330;48.816;9.278;2023-09-07T13:18:35;4.63;;;2.65;;
20344;SDS011;10330;48.816;9.278;2023-09-07T13:21:01;3.25;;;2.60;;
20344;SDS011;10330;48.816;9.278;2023-09-07T13:23:28;2.67;;;2.47;;
20344;SDS011;10330;48.816;9.278;2023-09-07T13:25:55;2.55;;;2.28;;
20344;SDS011;10330;48.816;9.278;2023-09-07T13:28:21;4.22;;;2.22;;
20344;SDS011;10330;48.816;9.278;2023-09-07T13:30:52;2.58;;;2.38;;
20344;SDS011;10330;48.816;9.278;2023-09-07T13:33:18;3.22;;;2.80;;
20344;SDS011;10330;48.816;9.278;2023-09-07T13:35:44;2.30;;;2.20;;
20344;SDS011;10330;48.816;9.278;2023-09-07T13:38:11;2.47;;;2.28;;
20344;SDS011;10330;48.816;9.278;2023-09-07T13:40:37;3.50;;;2.83;;
20344;SDS011;10330;48.816;9.278;2023-09-07T13:43:04;4.97;;;2.35;;
20344;SDS011;10330;48.816;9.278;2023-09-07T13:45:33;5.93;;;2.67;;
20344;SDS011;10330;48.816;9.278;2023-09-07T13:48:00;2.97;;;2.75;;
20344;SDS011;10330;48.816;9.278;2023-09-07T13:50:28;4.22;;;2.10;;
20344;SDS011;10330;48.816;9.278;2023-09-07T13:52:55;4.15;;;2.83;;
20344;SDS011;10330;48.816;9.278;2023-09-07T13:55:21;2.72;;;2.53;;
20344;SDS011;10330;48.816;9.278;2023-09-07T13:57:49;4.82;;;2.65;;
20344;SDS011;10330;48.816;9.278;2023-09-07T14:00:15;2.55;;;2.42;;
20344;SDS011;10330;48.816;9.278;2023-09-07T14:02:41;2.50;;;2.30;;
20344;SDS011;10330;48.816;9.278;2023-09-07T14:05:07;2.83;;;2.35;;
20344;SDS011;10330;48.816;9.278;2023-09-07T14:07:33;2.40;;;2.28;;
20344;SDS011;10330;48.816;9.278;2023-09-07T14:09:59;2.80;;;2.58;;
20344;SDS011;10330;48.816;9.278;2023-09-07T14:12:26;2.80;;;2.40;;
20344;SDS011;10330;48.816;9.278;2023-09-07T14:14:53;3.25;;;2.30;;
20344;SDS011;10330;48.816;9.278;2023-09-07T14:17:19;2.92;;;2.65;;
20344;SDS011;10330;48.816;9.278;2023-09-07T14:19:45;3.58;;;2.90;;
20344;SDS011;10330;48.816;9.278;2023-09-07T14:22:11;3.08;;;2.70;;
20344;SDS011;10330;48.816;9.278;2023-09-07T14:24:38;3.65;;;2.83;;
20344;SDS011;10330;48.816;9.278;2023-09-07T14:27:04;4.63;;;2.20;;
20344;SDS011;10330;48.816;9.278;2023-09-07T14:29:30;3.85;;;2.35;;
20344;SDS011;10330;48.816;9.278;2023-09-07T14:31:57;2.65;;;2.42;;
20344;SDS011;10330;48.816;9.278;2023-09-07T14:34:23;10.30;;;6.47;;
20344;SDS011;10330;48.816;9.278;2023-09-07T14:36:49;16.45;;;8.68;;
20344;SDS011;10330;48.816;9.278;2023-09-07T14:39:15;4.00;;;3.58;;
20344;SDS011;10330;48.816;9.278;2023-09-07T14:41:43;3.03;;;2.83;;
20344;SDS011;10330;48.816;9.278;2023-09-07T14:44:10;2.35;;;2.25;;
20344;SDS011;10330;48.816;9.278;2023-09-07T14:46:36;7.93;;;2.55;;
20344;SDS011;10330;48.816;9.278;2023-09-07T14:49:02;7.45;;;3.92;;
20344;SDS011;10330;48.816;9.278;2023-09-07T14:51:29;2.72;;;2.53;;
20344;SDS011;10330;48.816;9.278;2023-09-07T14:53:57;2.97;;;2.60;;
20344;SDS011;10330;48.816;9.278;2023-09-07T14:56:26;2.50;;;2.30;;
20344;SDS011;10330;48.816;9.278;2023-09-07T14:58:54;2.58;;;2.42;;
20344;SDS011;10330;48.816;9.278;2023-09-07T15:01:20;7.45;;;4.28;;
20344;SDS011;10330;48.816;9.278;2023-09-07T15:03:47;3.85;;;2.92;;
20344;SDS011;10330;48.816;9.278;2023-09-07T15:06:13;4.80;;;3.45;;
20344;SDS011;10330;48.816;9.278;2023-09-07T15:08:41;6.03;;;3.47;;
20344;SDS011;10330;48.816;9.278;2023-09-07T15:11:10;3.97;;;3.28;;
20344;SDS011;10330;48.816;9.278;2023-09-07T15:13:37;9.35;;;4.95;;
20344;SDS011;10330;48.816;9.278;2023-09-07T15:16:05;11.77;;;7.63;;
20344;SDS011;10330;48.816;9.278;2023-09-07T15:18:34;7.05;;;3.75;;
20344;SDS011;10330;48.816;9.278;2023-09-07T15:21:00;3.35;;;2.40;;
20344;SDS011;10330;48.816;9.278;2023-09-07T15:23:27;5.03;;;2.78;;
20344;SDS011;10330;48.816;9.278;2023-09-07T15:25:54;3.63;;;2.80;;
20344;SDS011;10330;48.816;9.278;2023-09-07T15:28:20;2.30;;;2.17;;
20344;SDS011;10330;48.816;9.278;2023-09-07T15:30:46;2.78;;;2.58;;
20344;SDS011;10330;48.816;9.278;2023-09-07T15:33:12;2.63;;;2.42;;
20344;SDS011;10330;48.816;9.278;2023-09-07T15:35:38;2.95;;;2.55;;
20344;SDS011;10330;48.816;9.278;2023-09-07T15:38:05;4.97;;;2.70;;
20344;SDS011;10330;48.816;9.278;2023-09-07T15:40:31;3.08;;;2.78;;
20344;SDS011;10330;48.816;9.278;2023-09-07T15:42:57;2.65;;;2.45;;
20344;SDS011;10330;48.816;9.278;2023-09-07T15:45:23;2.95;;;2.75;;
20344;SDS011;10330;48.816;9.278;2023-09-07T15:47:49;6.05;;;2.70;;
20344;SDS011;10330;48.816;9.278;2023-09-07T15:50:15;2.78;;;2.58;;
20344;SDS011;10330;48.816;9.278;2023-09-07T15:52:45;3.65;;;2.22;;
20344;SDS011;10330;48.816;9.278;2023-09-07T15:55:16;4.95;;;2.55;;
20344;SDS011;10330;48.816;9.278;2023-09-07T15:57:46;2.72;;;2.53;;
20344;SDS011;10330;48.816;9.278;2023-09-07T16:00:13;3.15;;;2.40;;
20344;SDS011;10330;48.816;9.278;2023-09-07T16:06:06;8.18;;;2.70;;
20344;SDS011;10330;48.816;9.278;2023-09-07T16:08:32;4.25;;;2.25;;
20344;SDS011;10330;48.816;9.278;2023-09-07T16:10:59;5.18;;;2.60;;
20344;SDS011;10330;48.816;9.278;2023-09-07T16:13:26;3.08;;;2.80;;
20344;SDS011;10330;48.816;9.278;2023-09-07T16:15:53;3.00;;;2.72;;
20344;SDS011;10330;48.816;9.278;2023-09-07T16:20:50;3.17;;;2.83;;
20344;SDS011;10330;48.816;9.278;2023-09-07T16:23:16;6.10;;;2.90;;
20344;SDS011;10330;48.816;9.278;2023-09-07T16:25:42;2.58;;;2.33;;
20344;SDS011;10330;48.816;9.278;2023-09-07T16:28:13;3.38;;;2.33;;
20344;SDS011;10330;48.816;9.278;2023-09-07T16:30:39;4.40;;;2.75;;
20344;SDS011;10330;48.816;9.278;2023-09-07T16:33:06;6.97;;;5.15;;
20344;SDS011;10330;48.816;9.278;2023-09-07T16:35:34;19.13;;;9.32;;
20344;SDS011;10330;48.816;9.278;2023-09-07T16:38:01;20.05;;;11.25;;
20344;SDS011;10330;48.816;9.278;2023-09-07T16:40:28;13.77;;;7.47;;
20344;SDS011;10330;48.816;9.278;2023-09-07T16:43:05;5.88;;;4.60;;
20344;SDS011;10330;48.816;9.278;2023-09-07T16:45:32;6.72;;;4.70;;
20344;SDS011;10330;48.816;9.278;2023-09-07T16:47:58;4.30;;;3.65;;
20344;SDS011;10330;48.816;9.278;2023-09-07T16:50:27;3.75;;;3.17;;
20344;SDS011;10330;48.816;9.278;2023-09-07T16:52:54;5.38;;;3.25;;
20344;SDS011;10330;48.816;9.278;2023-09-07T16:55:24;4.35;;;3.22;;
20344;SDS011;10330;48.816;9.278;2023-09-07T16:57:51;10.38;;;3.60;;
20344;SDS011;10330;48.816;9.278;2023-09-07T17:00:22;3.08;;;2.80;;
20344;SDS011;10330;48.816;9.278;2023-09-07T17:02:52;5.15;;;3.28;;
20344;SDS011;10330;48.816;9.278;2023-09-07T17:05:18;2.88;;;2.60;;
20344;SDS011;10330;48.816;9.278;2023-09-07T17:07:47;8.32;;;3.03;;
20344;SDS011;10330;48.816;9.278;2023-09-07T17:10:13;5.03;;;3.30;;
20344;SDS011;10330;48.816;9.278;2023-09-07T17:12:40;5.10;;;3.03;;
20344;SDS011;10330;48.816;9.278;2023-09-07T17:15:15;4.60;;;3.25;;
20344;SDS011;10330;48.816;9.278;2023-09-07T17:17:42;2.63;;;2.42;;
20344;SDS011;10330;48.816;9.278;2023-09-07T17:20:08;2.67;;;2.47;;
20344;SDS011;10330;48.816;9.278;2023-09-07T17:22:35;3.40;;;3.10;;
20344;SDS011;10330;48.816;9.278;2023-09-07T17:25:01;10.05;;;2.78;;
20344;SDS011;10330;48.816;9.278;2023-09-07T17:27:28;3.88;;;2.70;;
20344;SDS011;10330;48.816;9.278;2023-09-07T17:29:55;3.72;;;2.58;;
20344;SDS011;10330;48.816;9.278;2023-09-07T17:35:25;4.90;;;3.13;;
20344;SDS011;10330;48.816;9.278;2023-09-07T17:37:51;5.18;;;3.17;;
20344;SDS011;10330;48.816;9.278;2023-09-07T17:40:21;9.27;;;2.75;;
20344;SDS011;10330;48.816;9.278;2023-09-07T17:42:47;4.20;;;3.10;;
20344;SDS011;10330;48.816;9.278;2023-09-07T17:45:14;4.10;;;3.22;;
20344;SDS011;10330;48.816;9.278;2023-09-07T17:48:00;6.28;;;3.47;;
20344;SDS011;10330;48.816;9.278;2023-09-07T17:50:27;7.70;;;3.50;;
20344;SDS011;10330;48.816;9.278;2023-09-07T17:52:54;9.82;;;4.25;;
20344;SDS011;10330;48.816;9.278;2023-09-07T17:55:23;10.52;;;3.70;;
20344;SDS011;10330;48.816;9.278;2023-09-07T18:01:25;6.63;;;3.85;;
20344;SDS011;10330;48.816;9.278;2023-09-07T18:03:51;4.07;;;3.60;;
20344;SDS011;10330;48.816;9.278;2023-09-07T18:06:17;11.38;;;4.22;;
20344;SDS011;10330;48.816;9.278;2023-09-07T18:11:12;10.60;;;5.00;;
20344;SDS011;10330;48.816;9.278;2023-09-07T18:14:01;11.63;;;3.88;;
20344;SDS011;10330;48.816;9.278;2023-09-07T18:16:27;7.85;;;3.40;;
20344;SDS011;10330;48.816;9.278;2023-09-07T18:18:54;5.28;;;3.70;;
20344;SDS011;10330;48.816;9.278;2023-09-07T18:21:21;4.32;;;3.92;;
20344;SDS011;10330;48.816;9.278;2023-09-07T18:23:47;8.80;;;4.85;;
20344;SDS011;10330;48.816;9.278;2023-09-07T18:26:13;5.35;;;3.80;;
20344;SDS011;10330;48.816;9.278;2023-09-07T18:28:40;4.78;;;3.90;;
20344;SDS011;10330;48.816;9.278;2023-09-07T18:31:09;5.57;;;4.60;;
20344;SDS011;10330;48.816;9.278;2023-09-07T18:33:35;8.52;;;4.68;;
20344;SDS011;10330;48.816;9.278;2023-09-07T18:38:29;11.15;;;4.57;;
20344;SDS011;10330;48.816;9.278;2023-09-07T18:40:57;5.45;;;4.07;;
20344;SDS011;10330;48.816;9.278;2023-09-07T18:43:25;6.20;;;3.67;;
20344;SDS011;10330;48.816;9.278;2023-09-07T18:45:51;4.43;;;3.90;;
20344;SDS011;10330;48.816;9.278;2023-09-07T18:48:17;8.23;;;3.53;;
20344;SDS011;10330;48.816;9.278;2023-09-07T18:50:43;4.32;;;3.92;;
20344;SDS011;10330;48.816;9.278;2023-09-07T18:53:09;9.38;;;3.65;;
20344;SDS011;10330;48.816;9.278;2023-09-07T18:55:39;5.75;;;3.80;;
20344;SDS011;10330;48.816;9.278;2023-09-07T18:58:06;7.05;;;4.07;;
20344;SDS011;10330;48.816;9.278;2023-09-07T19:00:33;7.57;;;3.85;;
20344;SDS011;10330;48.816;9.278;2023-09-07T19:03:01;7.35;;;3.55;;
20344;SDS011;10330;48.816;9.278;2023-09-07T19:05:30;6.78;;;3.55;;
20344;SDS011;10330;48.816;9.278;2023-09-07T19:07:56;7.43;;;3.70;;
20344;SDS011;10330;48.816;9.278;2023-09-07T19:10:25;4.93;;;3.50;;
20344;SDS011;10330;48.816;9.278;2023-09-07T19:12:56;6.88;;;3.55;;
20344;SDS011;10330;48.816;9.278;2023-09-07T19:15:22;5.07;;;4.10;;
20344;SDS011;10330;48.816;9.278;2023-09-07T19:17:49;7.60;;;4.20;;
20344;SDS011;10330;48.816;9.278;2023-09-07T19:20:16;5.35;;;4.13;;
20344;SDS011;10330;48.816;9.278;2023-09-07T19:22:42;7.70;;;4.13;;
20344;SDS011;10330;48.816;9.278;2023-09-07T19:25:09;6.38;;;3.92;;
20344;SDS011;10330;48.816;9.278;2023-09-07T19:27:35;6.00;;;4.50;;
20344;SDS011;10330;48.816;9.278;2023-09-07T19:30:03;6.63;;;3.80;;
20344;SDS011;10330;48.816;9.278;2023-09-07T19:32:33;7.03;;;4.25;;
20344;SDS011;10330;48.816;9.278;2023-09-07T19:35:00;6.97;;;4.25;;
20344;SDS011;10330;48.816;9.278;2023-09-07T19:37:47;5.95;;;3.72;;
20344;SDS011;10330;48.816;9.278;2023-09-07T19:40:13;4.65;;;3.83;;